Terminal Aerodrome Forecast
Issued by NWS

Home | Current Version | Previous Version | Text Only | Print | Product List | Glossary On
Versions: 1 2 3 4 5 6 7 8 9 10 11 12 13 14 15 16 17 18
000
FTUS42 KTBW 092300
TAFLAL
TAF
KLAL 092338Z 1000/1024 VRB05KT P6SM BKN250
     FM101800 VRB03KT P6SM VCTS SCT045CB BKN150
      AMD NOT SKED 1003/1012=

USA.gov is the U.S. government's official web portal to all federal, state and local government web resources and services.